createdAt,value
2023-04-06T00:01:33.649Z,100009.72
2023-04-06T00:04:01.372Z,100004.78
2023-04-06T00:06:28.785Z,100007.50
2023-04-06T00:08:56.895Z,100004.78
2023-04-06T00:11:24.533Z,99998.97
2023-04-06T00:13:51.927Z,99995.97
2023-04-06T00:16:19.473Z,99993.87
2023-04-06T00:18:47.156Z,99991.44
2023-04-06T00:21:15.561Z,99992.78
2023-04-06T00:23:43.007Z,99992.59
2023-04-06T00:26:11.660Z,99990.66
2023-04-06T00:28:40.293Z,99985.22
2023-04-06T00:31:08.016Z,99986.41
2023-04-06T00:33:35.823Z,99980.84
2023-04-06T00:36:03.329Z,99983.81
2023-04-06T00:38:30.819Z,99974.91
2023-04-06T00:40:58.494Z,99973.53
2023-04-06T00:43:25.998Z,99974.50
2023-04-06T00:45:53.782Z,99970.19
2023-04-06T00:48:22.338Z,99969.44
2023-04-06T00:50:49.740Z,99973.44
2023-04-06T00:53:17.283Z,99962.44
2023-04-06T00:55:45.101Z,99967.22
2023-04-06T00:58:12.530Z,99966.28
2023-04-06T01:00:40.609Z,99977.00
2023-04-06T01:03:10.278Z,99975.19
2023-04-06T01:05:41.495Z,99972.38
2023-04-06T01:08:10.520Z,99973.81
2023-04-06T01:10:37.970Z,99981.03
2023-04-06T01:13:05.978Z,99987.25
2023-04-06T01:15:40.106Z,99973.84
2023-04-06T01:18:11.312Z,99974.12
2023-04-06T01:20:40.610Z,99975.25
2023-04-06T01:23:08.681Z,99965.16
2023-04-06T01:25:36.864Z,99969.47
2023-04-06T01:28:04.995Z,99963.37
2023-04-06T01:30:33.589Z,99972.63
2023-04-06T01:33:01.332Z,99964.84
2023-04-06T01:35:31.165Z,99970.13
2023-04-06T01:37:58.976Z,99965.13
2023-04-06T01:40:26.644Z,99967.31
2023-04-06T01:42:54.309Z,99968.56
2023-04-06T01:45:22.733Z,99971.13
2023-04-06T01:47:51.756Z,99971.66
2023-04-06T01:50:21.899Z,99975.06
2023-04-06T01:52:49.420Z,99962.44
2023-04-06T01:55:16.931Z,99962.56
2023-04-06T01:57:46.384Z,99962.50
2023-04-06T02:00:15.402Z,99957.53
2023-04-06T02:02:44.495Z,99961.03
2023-04-06T02:05:12.522Z,99961.59
2023-04-06T02:07:40.273Z,99962.00
2023-04-06T02:10:13.014Z,99964.13
2023-04-06T02:12:40.525Z,99957.34
2023-04-06T02:15:09.137Z,99953.03
2023-04-06T02:17:36.745Z,99954.03
2023-04-06T02:20:04.313Z,99948.63
2023-04-06T02:22:31.925Z,99949.16
2023-04-06T02:25:00.306Z,99942.91
2023-04-06T02:27:27.925Z,99941.34
2023-04-06T02:29:55.618Z,99933.41
2023-04-06T02:32:23.138Z,99938.19
2023-04-06T02:34:50.624Z,99939.25
2023-04-06T02:37:18.908Z,99941.88
2023-04-06T02:39:46.414Z,99929.69
2023-04-06T02:42:13.807Z,99921.81
2023-04-06T02:44:41.585Z,99924.41
2023-04-06T02:47:09.311Z,99926.28
2023-04-06T02:49:37.778Z,99932.22
2023-04-06T02:52:05.420Z,99929.06
2023-04-06T02:54:33.265Z,99928.44
2023-04-06T02:57:00.834Z,99926.47
2023-04-06T02:59:30.807Z,99923.72
2023-04-06T03:01:58.627Z,99920.13
2023-04-06T03:04:26.574Z,99927.09
2023-04-06T03:06:55.334Z,99924.09
2023-04-06T03:09:23.766Z,99925.78
2023-04-06T03:11:51.500Z,99929.56
2023-04-06T03:14:22.630Z,99918.19
2023-04-06T03:16:50.564Z,99927.94
2023-04-06T03:19:18.894Z,99918.06
2023-04-06T03:21:46.707Z,99923.97
2023-04-06T03:24:14.889Z,99922.88
2023-04-06T03:26:43.299Z,99928.66
2023-04-06T03:29:10.813Z,99932.78
2023-04-06T03:31:38.439Z,99926.94
2023-04-06T03:34:06.394Z,99925.72
2023-04-06T03:36:35.378Z,99929.50
2023-04-06T03:39:03.896Z,99918.97
2023-04-06T03:41:32.345Z,99919.28
2023-04-06T03:44:00.427Z,99932.09
2023-04-06T03:46:27.912Z,99926.78
2023-04-06T03:48:55.947Z,99923.13
2023-04-06T03:51:23.519Z,99927.63
2023-04-06T03:53:50.904Z,99928.97
2023-04-06T03:56:18.657Z,99925.03
2023-04-06T03:58:46.284Z,99927.72
2023-04-06T04:01:13.963Z,99921.16
2023-04-06T04:03:41.706Z,99924.94
2023-04-06T04:06:09.161Z,99918.63
2023-04-06T04:08:36.693Z,99915.03
2023-04-06T04:11:04.355Z,99912.44
2023-04-06T04:13:32.032Z,99917.00
2023-04-06T04:15:59.658Z,99916.78
2023-04-06T04:18:27.506Z,99916.63
2023-04-06T04:20:54.883Z,99918.81
2023-04-06T04:23:22.927Z,99911.06
2023-04-06T04:25:50.683Z,99909.84
2023-04-06T04:28:18.187Z,99919.03
2023-04-06T04:30:46.685Z,99907.19
2023-04-06T04:33:14.448Z,99925.87
2023-04-06T04:35:42.106Z,99925.59
2023-04-06T04:38:10.366Z,99927.00
2023-04-06T04:40:38.622Z,99924.37
2023-04-06T04:43:06.872Z,99923.56
2023-04-06T04:45:34.654Z,99922.81
2023-04-06T04:48:03.511Z,99928.31
2023-04-06T04:50:32.172Z,99918.06
2023-04-06T04:52:59.759Z,99926.09
2023-04-06T04:55:30.191Z,99929.09
2023-04-06T04:57:58.242Z,99921.81
2023-04-06T05:00:26.785Z,99920.13
2023-04-06T05:02:56.367Z,99914.00
2023-04-06T05:05:24.108Z,99912.75
2023-04-06T05:07:51.681Z,99902.91
2023-04-06T05:10:19.921Z,99910.44
2023-04-06T05:12:48.089Z,99904.59
2023-04-06T05:15:16.225Z,99913.06
2023-04-06T05:17:43.965Z,99921.03
2023-04-06T05:20:12.135Z,99921.66
2023-04-06T05:22:42.402Z,99928.34
2023-04-06T05:25:10.822Z,99917.28
2023-04-06T05:27:38.930Z,99901.78
2023-04-06T05:30:07.809Z,99908.19
2023-04-06T05:32:39.007Z,99906.22
2023-04-06T05:35:06.738Z,99891.16
2023-04-06T05:37:34.527Z,99894.34
2023-04-06T05:40:03.750Z,99881.13
2023-04-06T05:42:39.070Z,99882.25
2023-04-06T05:45:07.716Z,99889.16
2023-04-06T05:47:35.913Z,99891.22
2023-04-06T05:50:03.768Z,99890.56
2023-04-06T05:52:31.821Z,99899.06
2023-04-06T05:54:59.885Z,99894.09
2023-04-06T05:57:27.715Z,99890.56
2023-04-06T05:59:56.303Z,99881.34
2023-04-06T06:02:24.914Z,99885.69
2023-04-06T06:04:52.922Z,99879.72
2023-04-06T06:07:20.772Z,99884.75
2023-04-06T06:09:48.583Z,99889.75
2023-04-06T06:12:16.705Z,99888.19
2023-04-06T06:14:44.356Z,99876.31
2023-04-06T06:17:11.815Z,99869.63
2023-04-06T06:19:39.725Z,99866.88
2023-04-06T06:22:07.459Z,99858.16
2023-04-06T06:24:36.058Z,99862.19
2023-04-06T06:27:03.923Z,99866.63
2023-04-06T06:29:32.199Z,99855.19
2023-04-06T06:31:59.829Z,99849.28
2023-04-06T06:34:27.752Z,99842.41
2023-04-06T06:36:56.581Z,99853.78
2023-04-06T06:39:24.297Z,99843.13
2023-04-06T06:41:52.150Z,99845.94
2023-04-06T06:44:22.677Z,99847.41
2023-04-06T06:46:50.280Z,99848.94
2023-04-06T06:49:19.560Z,99855.63
2023-04-06T06:51:47.427Z,99845.88
2023-04-06T06:54:14.816Z,99843.19
2023-04-06T06:56:42.537Z,99845.75
2023-04-06T06:59:10.099Z,99843.84
2023-04-06T07:01:38.492Z,99835.97
2023-04-06T07:04:06.504Z,99842.28
2023-04-06T07:06:33.947Z,99840.84
2023-04-06T07:09:01.387Z,99839.66
2023-04-06T07:11:29.083Z,99828.59
2023-04-06T07:13:56.482Z,99836.34
2023-04-06T07:16:24.024Z,99837.47
2023-04-06T07:18:51.981Z,99837.25
2023-04-06T07:21:19.605Z,99832.59
2023-04-06T07:23:49.078Z,99824.59
2023-04-06T07:26:17.469Z,99823.63
2023-04-06T07:28:44.912Z,99830.81
2023-04-06T07:31:12.843Z,99824.72
2023-04-06T07:33:41.015Z,99828.78
2023-04-06T07:36:08.831Z,99819.97
2023-04-06T07:38:36.346Z,99815.91
2023-04-06T07:41:05.042Z,99812.41
2023-04-06T07:43:33.307Z,99827.84
2023-04-06T07:46:01.558Z,99821.03
2023-04-06T07:48:29.279Z,99830.50
2023-04-06T07:51:03.671Z,99832.25
2023-04-06T07:53:31.789Z,99807.09
2023-04-06T07:55:59.644Z,99812.47
2023-04-06T07:58:27.113Z,99808.41
2023-04-06T08:00:55.646Z,99812.66
2023-04-06T08:03:26.800Z,99812.16
2023-04-06T08:05:54.335Z,99792.75
2023-04-06T08:08:22.328Z,99803.87
2023-04-06T08:10:49.970Z,99805.25
2023-04-06T08:13:17.393Z,99806.12
2023-04-06T08:15:44.951Z,99801.28
2023-04-06T08:18:12.668Z,99802.22
2023-04-06T08:20:40.650Z,99809.97
2023-04-06T08:23:10.258Z,99811.91
2023-04-06T08:25:38.078Z,99804.16
2023-04-06T08:28:05.663Z,99801.22
2023-04-06T08:30:33.326Z,99806.00
2023-04-06T08:33:01.265Z,99796.16
2023-04-06T08:35:28.906Z,99792.06
2023-04-06T08:37:56.329Z,99799.59
2023-04-06T08:40:23.967Z,99777.91
2023-04-06T08:42:53.566Z,99779.72
2023-04-06T08:45:22.321Z,99789.25
2023-04-06T08:47:53.491Z,99771.06
2023-04-06T08:50:21.030Z,99753.66
2023-04-06T08:52:49.217Z,99764.47
2023-04-06T08:55:17.281Z,99769.44
2023-04-06T08:57:44.655Z,99761.19
2023-04-06T09:00:12.542Z,99757.56
2023-04-06T09:02:42.115Z,99754.56
2023-04-06T09:05:10.770Z,99745.38
2023-04-06T09:07:38.249Z,99746.59
2023-04-06T09:10:06.765Z,99735.81
2023-04-06T09:12:34.210Z,99732.47
2023-04-06T09:15:01.768Z,99736.59
2023-04-06T09:17:31.012Z,99745.53
2023-04-06T09:19:58.474Z,99737.38
2023-04-06T09:22:26.772Z,99721.50
2023-04-06T09:24:54.709Z,99748.66
2023-04-06T09:27:34.981Z,99730.97
2023-04-06T09:30:06.947Z,99719.19
2023-04-06T09:32:45.700Z,99719.13
2023-04-06T09:35:13.562Z,99703.19
2023-04-06T09:37:40.920Z,99710.28
2023-04-06T09:40:08.796Z,99714.69
2023-04-06T09:42:36.439Z,99718.09
2023-04-06T09:45:04.167Z,99701.09
2023-04-06T09:47:31.902Z,99708.91
2023-04-06T09:50:00.246Z,99705.09
2023-04-06T09:52:49.852Z,99690.25
2023-04-06T09:55:50.025Z,99700.88
2023-04-06T09:58:20.209Z,99694.66
2023-04-06T10:01:04.345Z,99723.47
2023-04-06T10:03:39.830Z,99691.97
2023-04-06T10:06:12.163Z,99690.78
2023-04-06T10:08:41.507Z,99697.53
2023-04-06T10:11:10.035Z,99693.16
2023-04-06T10:13:37.581Z,99692.66
2023-04-06T10:16:05.443Z,99702.72
2023-04-06T10:18:32.990Z,99677.00
2023-04-06T10:21:07.607Z,99680.31
2023-04-06T10:23:55.080Z,99666.19
2023-04-06T10:26:22.550Z,99662.06
2023-04-06T10:28:50.858Z,99665.19
2023-04-06T10:31:28.650Z,99682.81
2023-04-06T10:33:57.738Z,99676.59
2023-04-06T10:36:29.253Z,99668.16
2023-04-06T10:38:59.003Z,99670.78
2023-04-06T10:41:46.727Z,99673.87
2023-04-06T10:44:24.559Z,99656.63
2023-04-06T10:47:01.351Z,99668.78
2023-04-06T10:49:29.048Z,99671.53
2023-04-06T10:51:56.898Z,99666.13
2023-04-06T10:54:26.095Z,99644.66
2023-04-06T10:56:53.745Z,99650.13
2023-04-06T10:59:22.093Z,99653.47
2023-04-06T11:01:49.651Z,99637.91
2023-04-06T11:04:18.893Z,99640.22
2023-04-06T11:06:49.849Z,99634.56
2023-04-06T11:09:30.776Z,99648.31
2023-04-06T11:11:58.302Z,99629.84
2023-04-06T11:14:27.605Z,99639.75
2023-04-06T11:16:55.969Z,99650.41
2023-04-06T11:19:23.786Z,99641.19
2023-04-06T11:21:51.644Z,99639.06
2023-04-06T11:24:22.806Z,99654.06
2023-04-06T11:26:53.447Z,99647.69
2023-04-06T11:29:22.324Z,99633.34
2023-04-06T11:31:51.123Z,99639.00
2023-04-06T11:34:28.881Z,99639.22
2023-04-06T11:37:00.976Z,99618.63
2023-04-06T11:39:29.312Z,99646.56
2023-04-06T11:42:01.080Z,99614.56
2023-04-06T11:44:47.034Z,99637.84
2023-04-06T11:47:14.812Z,99610.00
2023-04-06T11:49:43.331Z,99617.12
2023-04-06T11:52:21.409Z,99620.28
2023-04-06T11:54:49.857Z,99617.94
2023-04-06T11:57:17.765Z,99612.50
2023-04-06T11:59:45.495Z,99613.63
2023-04-06T12:02:13.156Z,99616.16
2023-04-06T12:04:40.878Z,99610.16
2023-04-06T12:07:08.228Z,99619.94
2023-04-06T12:09:35.754Z,99606.88
2023-04-06T12:12:04.086Z,99600.72
2023-04-06T12:14:31.760Z,99611.03
2023-04-06T12:16:59.367Z,99625.06
2023-04-06T12:19:27.181Z,99602.06
2023-04-06T12:21:55.484Z,99608.62
2023-04-06T12:24:22.957Z,99610.19
2023-04-06T12:26:54.004Z,99606.53
2023-04-06T12:29:27.094Z,99605.66
2023-04-06T12:31:54.805Z,99606.84
2023-04-06T12:34:22.180Z,99605.50
2023-04-06T12:36:49.614Z,99605.03
2023-04-06T12:39:18.826Z,99603.88
2023-04-06T12:41:47.846Z,99615.28
2023-04-06T12:44:15.236Z,99596.59
2023-04-06T12:46:44.318Z,99602.31
2023-04-06T12:49:12.110Z,99605.19
2023-04-06T12:51:39.494Z,99595.72
2023-04-06T12:54:07.552Z,99594.56
2023-04-06T12:56:34.965Z,99589.31
2023-04-06T12:59:02.452Z,99597.91
2023-04-06T13:01:30.204Z,99589.31
2023-04-06T13:03:58.830Z,99594.50
2023-04-06T13:06:29.527Z,99616.38
2023-04-06T13:08:57.213Z,99588.78
2023-04-06T13:11:27.869Z,99586.25
2023-04-06T13:13:56.273Z,99586.66
2023-04-06T13:16:23.999Z,99590.47
2023-04-06T13:18:52.096Z,99600.66
2023-04-06T13:21:21.304Z,99585.12
2023-04-06T13:23:48.977Z,99594.41
2023-04-06T13:26:17.652Z,99586.94
2023-04-06T13:28:45.127Z,99586.66
2023-04-06T13:31:12.914Z,99578.56
2023-04-06T13:33:41.887Z,99575.88
2023-04-06T13:36:09.502Z,99591.09
2023-04-06T13:38:39.839Z,99586.66
2023-04-06T13:41:07.297Z,99580.03
2023-04-06T13:43:34.723Z,99567.59
2023-04-06T13:46:02.463Z,99584.47
2023-04-06T13:48:29.950Z,99574.59
2023-04-06T13:50:57.355Z,99574.91
2023-04-06T13:53:25.277Z,99581.37
2023-04-06T13:55:56.149Z,99570.38
2023-04-06T13:58:24.041Z,99582.16
2023-04-06T14:00:52.012Z,99570.91
2023-04-06T14:03:20.080Z,99567.63
2023-04-06T14:05:47.491Z,99565.41
2023-04-06T14:08:14.896Z,99575.34
2023-04-06T14:10:43.258Z,99584.16
2023-04-06T14:13:11.502Z,99578.72
2023-04-06T14:15:39.086Z,99583.47
2023-04-06T14:18:07.076Z,99597.22
2023-04-06T14:20:34.540Z,99586.69
2023-04-06T14:23:02.852Z,99577.16
2023-04-06T14:25:32.954Z,99576.72
2023-04-06T14:28:00.772Z,99573.66
2023-04-06T14:30:29.027Z,99566.13
2023-04-06T14:32:59.863Z,99579.59
2023-04-06T14:35:29.131Z,99571.28
2023-04-06T14:37:59.000Z,99566.47
2023-04-06T14:40:26.433Z,99572.97
2023-04-06T14:42:53.807Z,99582.53
2023-04-06T14:45:22.829Z,99577.66
2023-04-06T14:47:50.342Z,99586.12
2023-04-06T14:50:17.723Z,99588.09
2023-04-06T14:52:47.237Z,99598.75
2023-04-06T14:55:15.038Z,99591.19
2023-04-06T14:57:42.395Z,99594.81
2023-04-06T15:00:11.067Z,99595.59
2023-04-06T15:02:39.372Z,99602.53
2023-04-06T15:05:07.291Z,99586.78
2023-04-06T15:07:34.977Z,99589.19
2023-04-06T15:10:02.420Z,99587.44
2023-04-06T15:12:30.797Z,99606.59
2023-04-06T15:14:58.497Z,99623.50
2023-04-06T15:17:27.491Z,99611.19
2023-04-06T15:19:55.365Z,99602.41
2023-04-06T15:22:23.037Z,99619.41
2023-04-06T15:24:50.526Z,99603.91
2023-04-06T15:27:17.864Z,99603.00
2023-04-06T15:29:45.718Z,99596.78
2023-04-06T15:32:13.411Z,99585.81
2023-04-06T15:34:40.843Z,99597.97
2023-04-06T15:37:09.245Z,99582.16
2023-04-06T15:39:37.794Z,99595.50
2023-04-06T15:42:05.263Z,99585.56
2023-04-06T15:44:32.882Z,99591.03
2023-04-06T15:47:00.332Z,99588.00
2023-04-06T15:49:27.742Z,99581.19
2023-04-06T15:51:55.406Z,99592.31
2023-04-06T15:54:22.766Z,99590.72
2023-04-06T15:56:50.932Z,99603.34
2023-04-06T15:59:18.526Z,99623.25
2023-04-06T16:01:46.785Z,99614.41
2023-04-06T16:04:14.928Z,99622.34
2023-04-06T16:06:42.468Z,99624.81
2023-04-06T16:09:09.838Z,99616.19
2023-04-06T16:11:37.567Z,99617.59
2023-04-06T16:14:05.245Z,99637.94
2023-04-06T16:16:32.732Z,99641.34
2023-04-06T16:19:00.476Z,99627.56
2023-04-06T16:21:28.777Z,99635.53
2023-04-06T16:23:58.021Z,99647.91
2023-04-06T16:26:27.218Z,99650.16
2023-04-06T16:28:54.706Z,99644.44
2023-04-06T16:31:23.606Z,99667.59
2023-04-06T16:33:56.290Z,99660.22
2023-04-06T16:36:27.902Z,99678.09
2023-04-06T16:38:59.065Z,99682.84
2023-04-06T16:41:27.548Z,99685.03
2023-04-06T16:43:58.029Z,99681.03
2023-04-06T16:46:35.960Z,99683.19
2023-04-06T16:49:04.188Z,99668.38
2023-04-06T16:51:32.427Z,99678.69
2023-04-06T16:53:59.818Z,99691.59
2023-04-06T16:56:27.573Z,99690.03
2023-04-06T16:58:55.513Z,99692.38
2023-04-06T17:01:24.162Z,99697.50
2023-04-06T17:03:51.681Z,99704.81
2023-04-06T17:06:19.593Z,99696.53
2023-04-06T17:08:47.401Z,99697.38
2023-04-06T17:11:18.696Z,99727.59
2023-04-06T17:13:51.096Z,99726.16
2023-04-06T17:16:19.473Z,99698.53
2023-04-06T17:18:46.901Z,99695.59
2023-04-06T17:21:14.655Z,99696.22
2023-04-06T17:23:42.061Z,99703.44
2023-04-06T17:26:09.418Z,99701.00
2023-04-06T17:28:37.042Z,99703.28
2023-04-06T17:31:08.069Z,99719.06
2023-04-06T17:33:36.370Z,99722.22
2023-04-06T17:36:04.710Z,99726.87
2023-04-06T17:38:32.144Z,99721.31
2023-04-06T17:41:01.282Z,99725.47
2023-04-06T17:43:28.930Z,99720.59
2023-04-06T17:45:56.276Z,99721.53
2023-04-06T17:48:23.664Z,99725.28
2023-04-06T17:50:51.306Z,99731.88
2023-04-06T17:53:20.361Z,99732.72
2023-04-06T17:55:47.801Z,99746.59
2023-04-06T17:58:15.671Z,99737.09
2023-04-06T18:00:43.029Z,99747.59
2023-04-06T18:03:10.668Z,99730.97
2023-04-06T18:05:38.505Z,99730.50
2023-04-06T18:08:05.974Z,99726.78
2023-04-06T18:10:37.261Z,99727.03
2023-04-06T18:13:04.613Z,99735.97
2023-04-06T18:15:32.062Z,99736.81
2023-04-06T18:17:59.697Z,99728.81
2023-04-06T18:20:27.152Z,99732.16
2023-04-06T18:22:55.743Z,99735.38
2023-04-06T18:25:25.316Z,99730.34
2023-04-06T18:27:52.696Z,99731.81
2023-04-06T18:30:20.529Z,99730.69
2023-04-06T18:32:48.792Z,99736.59
2023-04-06T18:35:16.428Z,99738.84
2023-04-06T18:37:43.758Z,99739.94
2023-04-06T18:40:33.023Z,99739.25
2023-04-06T18:43:00.643Z,99739.91
2023-04-06T18:45:28.368Z,99735.84
2023-04-06T18:47:56.750Z,99736.47
2023-04-06T18:50:24.178Z,99742.81
2023-04-06T18:52:52.186Z,99737.44
2023-04-06T18:55:19.777Z,99734.97
2023-04-06T18:57:47.205Z,99728.56
2023-04-06T19:00:15.570Z,99740.03
2023-04-06T19:02:43.870Z,99738.38
2023-04-06T19:05:12.157Z,99732.25
2023-04-06T19:07:39.985Z,99724.38
2023-04-06T19:10:08.369Z,99726.16
2023-04-06T19:12:37.637Z,99736.09
2023-04-06T19:15:07.535Z,99728.34
2023-04-06T19:17:35.395Z,99721.38
2023-04-06T19:20:02.923Z,99724.44
2023-04-06T19:22:31.116Z,99726.37
2023-04-06T19:24:58.488Z,99711.31
2023-04-06T19:27:26.013Z,99714.97
2023-04-06T19:29:53.644Z,99710.53
2023-04-06T19:32:21.078Z,99707.09
2023-04-06T19:34:48.817Z,99703.41
2023-04-06T19:37:16.405Z,99718.56
2023-04-06T19:39:47.645Z,99704.00
2023-04-06T19:42:21.629Z,99707.62
2023-04-06T19:44:49.296Z,99687.53
2023-04-06T19:47:16.683Z,99695.94
2023-04-06T19:49:44.076Z,99709.44
2023-04-06T19:52:11.793Z,99698.19
2023-04-06T19:54:39.668Z,99695.81
2023-04-06T19:57:07.165Z,99700.06
2023-04-06T19:59:34.749Z,99688.84
2023-04-06T20:02:02.226Z,99684.97
2023-04-06T20:04:30.091Z,99685.56
2023-04-06T20:06:57.620Z,99691.66
2023-04-06T20:09:25.252Z,99685.47
2023-04-06T20:11:54.113Z,99686.44
2023-04-06T20:14:22.219Z,99684.09
2023-04-06T20:16:50.854Z,99688.25
2023-04-06T20:19:19.248Z,99691.13
2023-04-06T20:21:48.212Z,99689.22
2023-04-06T20:24:15.748Z,99688.50
2023-04-06T20:26:43.380Z,99695.03
2023-04-06T20:29:10.747Z,99709.78
2023-04-06T20:31:38.134Z,99694.59
2023-04-06T20:34:05.905Z,99698.00
2023-04-06T20:36:34.251Z,99697.38
2023-04-06T20:39:01.591Z,99695.78
2023-04-06T20:41:29.303Z,99685.28
2023-04-06T20:43:56.640Z,99685.41
2023-04-06T20:46:25.150Z,99693.56
2023-04-06T20:48:53.065Z,99694.38
2023-04-06T20:51:21.266Z,99680.00
2023-04-06T20:53:48.791Z,99690.59
2023-04-06T20:56:16.511Z,99687.81
2023-04-06T20:58:43.884Z,99690.19
2023-04-06T21:01:14.946Z,99702.91
2023-04-06T21:03:43.012Z,99690.38
2023-04-06T21:06:10.852Z,99685.16
2023-04-06T21:08:38.253Z,99679.44
2023-04-06T21:11:06.320Z,99694.00
2023-04-06T21:13:34.396Z,99685.97
2023-04-06T21:16:02.166Z,99688.87
2023-04-06T21:18:30.806Z,99688.06
2023-04-06T21:20:58.217Z,99687.69
2023-04-06T21:23:25.696Z,99683.41
2023-04-06T21:25:56.873Z,99687.09
2023-04-06T21:28:27.067Z,99695.28
2023-04-06T21:30:54.721Z,99676.31
2023-04-06T21:33:22.417Z,99685.75
2023-04-06T21:35:49.833Z,99678.34
2023-04-06T21:38:17.456Z,99668.19
2023-04-06T21:40:44.811Z,99675.44
2023-04-06T21:43:12.143Z,99660.63
2023-04-06T21:45:40.306Z,99657.44
2023-04-06T21:48:07.887Z,99658.03
2023-04-06T21:50:39.543Z,99656.34
2023-04-06T21:53:07.189Z,99661.75
2023-04-06T21:55:34.554Z,99662.09
2023-04-06T21:58:01.911Z,99658.44
2023-04-06T22:00:29.562Z,99652.06
2023-04-06T22:02:57.390Z,99654.50
2023-04-06T22:05:24.930Z,99656.84
2023-04-06T22:07:52.711Z,99643.03
2023-04-06T22:10:20.451Z,99639.53
2023-04-06T22:12:49.770Z,99634.06
2023-04-06T22:15:17.137Z,99638.47
2023-04-06T22:17:44.775Z,99629.69
2023-04-06T22:20:12.273Z,99622.03
2023-04-06T22:22:39.734Z,99633.75
2023-04-06T22:25:07.725Z,99631.66
2023-04-06T22:27:35.082Z,99632.22
2023-04-06T22:30:03.313Z,99626.47
2023-04-06T22:32:31.004Z,99627.28
2023-04-06T22:34:58.430Z,99627.25
2023-04-06T22:37:25.886Z,99622.69
2023-04-06T22:39:53.533Z,99631.88
2023-04-06T22:42:20.858Z,99635.84
2023-04-06T22:44:48.221Z,99634.78
2023-04-06T22:47:16.024Z,99639.75
2023-04-06T22:49:43.474Z,99643.34
2023-04-06T22:52:10.905Z,99638.78
2023-04-06T22:54:38.972Z,99631.03
2023-04-06T22:57:06.347Z,99636.75
2023-04-06T22:59:33.725Z,99628.03
2023-04-06T23:02:01.512Z,99624.44
2023-04-06T23:04:28.982Z,99626.56
2023-04-06T23:06:56.515Z,99621.25
2023-04-06T23:09:24.319Z,99621.72
2023-04-06T23:11:51.707Z,99615.66
2023-04-06T23:14:19.049Z,99607.22
2023-04-06T23:16:46.761Z,99607.19
2023-04-06T23:19:14.145Z,99608.59
2023-04-06T23:21:41.704Z,99602.72
2023-04-06T23:24:09.433Z,99597.56
2023-04-06T23:26:36.790Z,99605.16
2023-04-06T23:29:04.140Z,99596.41
2023-04-06T23:31:31.732Z,99600.53
2023-04-06T23:33:59.081Z,99597.69
2023-04-06T23:36:26.876Z,99599.16
2023-04-06T23:38:54.669Z,99597.84
2023-04-06T23:41:22.554Z,99599.53
2023-04-06T23:43:49.969Z,99591.13
2023-04-06T23:46:17.818Z,99590.94
2023-04-06T23:48:45.328Z,99584.28
2023-04-06T23:51:12.711Z,99602.03
2023-04-06T23:53:41.141Z,99586.34
2023-04-06T23:56:08.499Z,99587.75
2023-04-06T23:58:35.910Z,99588.72
